Time;durP1;ratioP1;P1;durP2;ratioP2;P2;SDS_P1;SDS_P2;PMS_P1;PMS_P2;Temp;Humidity;BMP_temperature;BMP_pressure;BME280_temperature;BME280_humidity;BME280_pressure;Samples;Min_cycle;Max_cycle;Signal;HPM_P1;HPM_P2
2024/01/26 00:01:47;;;;;;;7.00;4.03;;;;;;;9.07;55.37;102046.66;4967220;28;20047;-72
2024/01/26 00:04:17;;;;;;;7.15;3.67;;;;;;;9.09;54.94;102038.34;4967606;28;20043;-73
2024/01/26 00:06:46;;;;;;;5.85;3.95;;;;;;;9.08;55.28;102040.19;4968467;28;20149;-72
2024/01/26 00:09:15;;;;;;;7.20;3.90;;;;;;;9.09;54.91;102035.63;4970041;28;20117;-72
2024/01/26 00:11:44;;;;;;;6.90;4.35;;;;;;;9.09;55.15;102038.34;4969127;28;20054;-72
2024/01/26 00:14:11;;;;;;;6.95;3.78;;;;;;;9.09;55.15;102035.63;4967477;28;20050;-72
2024/01/26 00:16:40;;;;;;;7.30;3.75;;;;;;;9.08;55.27;102040.19;4968038;28;20077;-71
2024/01/26 00:19:08;;;;;;;6.30;3.55;;;;;;;9.08;55.30;102042.09;4967057;28;20054;-72
2024/01/26 00:21:38;;;;;;;6.45;3.45;;;;;;;9.09;55.15;102044.69;4967664;28;20101;-72
2024/01/26 00:24:07;;;;;;;6.07;3.55;;;;;;;9.08;55.41;102039.34;4968351;28;20054;-72
2024/01/26 00:26:34;;;;;;;5.93;3.92;;;;;;;9.07;54.88;102032.13;4966178;28;20097;-73
2024/01/26 00:29:02;;;;;;;6.05;3.70;;;;;;;9.07;55.14;102034.88;4969722;28;20038;-72
2024/01/26 00:31:30;;;;;;;6.40;3.78;;;;;;;9.06;54.94;102028.53;4969311;28;20121;-73
2024/01/26 00:33:58;;;;;;;6.20;3.67;;;;;;;9.07;55.29;102027.56;4967997;28;20057;-73
2024/01/26 00:36:26;;;;;;;6.53;3.97;;;;;;;9.07;55.19;102027.56;4965026;28;20046;-73
2024/01/26 00:38:56;;;;;;;6.32;4.15;;;;;;;9.09;55.53;102030.16;4969795;28;20050;-73
2024/01/26 00:41:24;;;;;;;5.55;3.65;;;;;;;9.07;55.13;102024.81;4969629;28;20450;-73
2024/01/26 00:43:52;;;;;;;6.88;3.90;;;;;;;9.08;55.51;102025.69;4967906;28;20094;-73
2024/01/26 00:46:20;;;;;;;7.95;3.63;;;;;;;9.08;55.69;102018.34;4966645;28;20073;-73
2024/01/26 00:48:48;;;;;;;7.93;4.22;;;;;;;9.08;55.00;102029.28;4967526;28;20047;-74
2024/01/26 00:51:17;;;;;;;6.25;3.72;;;;;;;9.09;55.13;102020.13;4974649;28;20043;-73
2024/01/26 00:53:45;;;;;;;7.20;4.65;;;;;;;9.11;55.40;102025.50;4966834;28;20053;-73
2024/01/26 00:56:14;;;;;;;6.35;3.65;;;;;;;9.12;55.63;102020.91;4969497;28;20461;-73
2024/01/26 00:58:42;;;;;;;6.47;3.47;;;;;;;9.10;55.41;102016.41;4964912;28;20043;-73
2024/01/26 01:01:10;;;;;;;6.68;3.80;;;;;;;9.12;55.42;102007.25;4967124;28;20426;-73
2024/01/26 01:03:38;;;;;;;6.88;3.85;;;;;;;9.13;55.10;102009.00;4968224;28;20311;-73
2024/01/26 01:06:06;;;;;;;5.28;3.53;;;;;;;9.14;55.63;102008.03;4967918;28;20129;-73
2024/01/26 01:08:34;;;;;;;6.22;3.80;;;;;;;9.14;55.74;102005.31;4965253;28;20054;-73
2024/01/26 01:11:02;;;;;;;6.07;3.72;;;;;;;9.13;55.41;102004.44;4966795;28;20140;-73
2024/01/26 01:13:31;;;;;;;5.88;3.72;;;;;;;9.16;55.84;102006.09;4966178;28;20039;-73
2024/01/26 01:16:00;;;;;;;5.32;3.58;;;;;;;9.15;55.36;102001.59;4968756;28;20212;-73
2024/01/26 01:18:28;;;;;;;5.57;3.45;;;;;;;9.16;55.64;102000.63;4968609;28;20034;-73
2024/01/26 01:20:57;;;;;;;7.35;3.63;;;;;;;9.16;55.40;101998.78;4970262;28;20047;-72
2024/01/26 01:23:25;;;;;;;6.72;3.95;;;;;;;9.18;55.79;102006.84;4967148;28;20477;-73
2024/01/26 01:25:53;;;;;;;5.88;3.67;;;;;;;9.18;55.56;102010.47;4969174;28;20058;-72
2024/01/26 01:28:21;;;;;;;5.72;3.47;;;;;;;9.19;55.46;102008.63;4965747;28;20066;-73
2024/01/26 01:30:50;;;;;;;5.72;3.70;;;;;;;9.21;55.52;102010.28;4965139;28;20046;-73
2024/01/26 01:33:18;;;;;;;5.90;3.83;;;;;;;9.21;55.82;102014.88;4965798;28;20050;-73
2024/01/26 01:35:47;;;;;;;5.25;3.72;;;;;;;9.21;55.46;102012.13;4968737;28;20058;-73
2024/01/26 01:38:15;;;;;;;5.82;3.70;;;;;;;9.23;55.33;102015.66;4968536;28;20043;-73
2024/01/26 01:40:44;;;;;;;6.63;3.92;;;;;;;9.24;55.50;102015.56;4968594;28;20129;-73
2024/01/26 01:43:16;;;;;;;6.13;3.95;;;;;;;9.26;55.84;102012.72;4967539;28;20050;-73
2024/01/26 01:45:44;;;;;;;5.10;3.53;;;;;;;9.25;55.43;102008.22;4966044;28;20043;-73
2024/01/26 01:48:13;;;;;;;6.63;4.05;;;;;;;9.27;55.86;102001.69;4968966;28;20434;-73
2024/01/26 01:50:43;;;;;;;7.55;3.75;;;;;;;9.26;55.92;102005.38;4966305;28;20055;-73
2024/01/26 01:53:12;;;;;;;6.20;3.60;;;;;;;9.27;55.61;102000.81;4969687;28;20101;-73
2024/01/26 01:55:42;;;;;;;5.90;3.72;;;;;;;9.27;55.74;102004.41;4972626;28;20054;-73
2024/01/26 01:58:10;;;;;;;6.25;4.07;;;;;;;9.27;55.72;101996.22;4971664;28;20085;-74
2024/01/26 02:00:39;;;;;;;7.70;4.10;;;;;;;9.26;55.61;102005.38;4969755;28;20131;-73
2024/01/26 02:03:07;;;;;;;6.03;3.95;;;;;;;9.27;55.63;102007.16;4963756;28;20098;-73
2024/01/26 02:05:36;;;;;;;6.82;3.88;;;;;;;9.29;56.01;102001.59;4972455;28;20588;-73
2024/01/26 02:08:05;;;;;;;5.57;4.15;;;;;;;9.27;55.63;101993.50;4969846;28;20458;-73
2024/01/26 02:10:33;;;;;;;5.85;4.13;;;;;;;9.27;55.63;101993.50;4971879;28;20462;-72
2024/01/26 02:13:02;;;;;;;6.10;3.90;;;;;;;9.29;55.83;101990.66;4967709;28;20070;-72
2024/01/26 02:15:29;;;;;;;6.25;4.07;;;;;;;9.27;55.77;101985.28;4971612;28;20109;-72
2024/01/26 02:17:59;;;;;;;8.00;4.55;;;;;;;9.29;55.62;101977.88;4971463;28;20134;-72
2024/01/26 02:20:27;;;;;;;8.25;4.57;;;;;;;9.28;56.08;101978.84;4973790;28;20070;-71
2024/01/26 02:23:21;;;;;;;6.30;4.10;;;;;;;9.30;55.79;101971.44;4962656;28;20043;-72
2024/01/26 02:25:49;;;;;;;7.60;4.50;;;;;;;9.29;55.76;101977.88;4971889;28;20057;-72
2024/01/26 02:28:17;;;;;;;6.03;4.13;;;;;;;9.30;55.91;101967.84;4972060;28;20372;-73
2024/01/26 02:30:45;;;;;;;7.22;4.00;;;;;;;9.30;55.88;101962.38;4971114;28;20051;-72
2024/01/26 02:33:13;;;;;;;6.93;4.38;;;;;;;9.30;55.90;101966.00;4969494;28;20462;-74
2024/01/26 02:35:42;;;;;;;6.32;4.50;;;;;;;9.31;56.24;101964.13;4972173;28;20051;-74
2024/01/26 02:38:09;;;;;;;6.68;4.22;;;;;;;9.31;56.24;101966.88;4971622;28;20285;-72
2024/01/26 02:40:39;;;;;;;5.53;3.65;;;;;;;9.33;55.79;101951.25;4970926;28;20450;-72
2024/01/26 02:43:07;;;;;;;6.32;3.95;;;;;;;9.33;55.96;101951.25;4967281;28;20450;-72
2024/01/26 02:45:35;;;;;;;7.47;4.07;;;;;;;9.33;56.02;101945.81;4968191;28;20054;-72
2024/01/26 02:48:03;;;;;;;6.55;4.22;;;;;;;9.34;55.98;101940.22;4971798;28;20553;-73
2024/01/26 02:50:33;;;;;;;6.85;4.18;;;;;;;9.35;56.26;101935.63;4971227;28;20047;-73
2024/01/26 02:53:01;;;;;;;5.82;4.10;;;;;;;9.36;56.35;101937.38;4968460;28;20623;-72
2024/01/26 02:55:29;;;;;;;5.93;4.35;;;;;;;9.36;55.89;101941.00;4970168;28;20054;-73
2024/01/26 02:57:58;;;;;;;6.03;3.85;;;;;;;9.39;56.14;101942.69;4970531;28;20128;-73
2024/01/26 03:00:26;;;;;;;6.03;3.92;;;;;;;9.38;56.55;101941.81;4967426;28;20042;-72
2024/01/26 03:02:54;;;;;;;6.68;4.30;;;;;;;9.39;56.58;101945.41;4967525;28;20346;-73
2024/01/26 03:05:22;;;;;;;6.40;4.22;;;;;;;9.40;56.32;101949.91;4967204;28;20046;-72
2024/01/26 03:07:50;;;;;;;7.35;4.90;;;;;;;9.40;56.47;101941.72;4970803;28;20050;-72
2024/01/26 03:10:18;;;;;;;6.80;4.38;;;;;;;9.42;56.31;101948.81;4970803;28;20106;-72
2024/01/26 03:12:47;;;;;;;6.32;4.35;;;;;;;9.42;56.40;101935.16;4967646;28;20454;-72
2024/01/26 03:15:17;;;;;;;6.70;4.13;;;;;;;9.45;56.59;101931.34;4967295;28;20042;-72
2024/01/26 03:17:45;;;;;;;6.40;4.22;;;;;;;9.44;56.25;101927.75;4966848;28;20054;-71
2024/01/26 03:20:14;;;;;;;6.00;4.30;;;;;;;9.45;56.25;101926.75;4968106;28;20122;-72
2024/01/26 03:22:43;;;;;;;6.53;4.05;;;;;;;9.46;56.54;101924.91;4967255;28;20376;-72
2024/01/26 03:25:11;;;;;;;6.07;4.00;;;;;;;9.46;56.38;101906.66;4967716;28;20043;-73
2024/01/26 03:27:39;;;;;;;5.60;3.90;;;;;;;9.46;56.12;101917.59;4970871;28;20066;-73
2024/01/26 03:30:08;;;;;;;6.05;4.20;;;;;;;9.50;56.28;101920.09;4968366;28;20062;-73
2024/01/26 03:32:37;;;;;;;6.15;4.18;;;;;;;9.51;56.68;101928.19;4966318;28;20367;-73
2024/01/26 03:35:06;;;;;;;6.18;4.13;;;;;;;9.51;56.72;101911.81;4970166;28;20053;-72
2024/01/26 03:37:34;;;;;;;6.05;3.92;;;;;;;9.51;56.12;101897.25;4968700;28;20042;-72
2024/01/26 03:40:03;;;;;;;6.32;3.80;;;;;;;9.53;56.70;101900.78;4969704;28;20101;-72
2024/01/26 03:42:31;;;;;;;5.65;3.70;;;;;;;9.52;56.35;101888.97;4969061;28;20038;-72
2024/01/26 03:44:59;;;;;;;6.38;3.67;;;;;;;9.53;56.39;101898.03;4972086;28;20051;-72
2024/01/26 03:47:27;;;;;;;6.63;3.88;;;;;;;9.54;56.61;101897.06;4969607;28;20047;-73
2024/01/26 03:49:56;;;;;;;7.53;4.05;;;;;;;9.56;56.30;101906.94;4967013;28;20553;-73
2024/01/26 03:52:24;;;;;;;6.10;4.18;;;;;;;9.54;56.66;101906.16;4969919;28;20363;-73
2024/01/26 03:54:52;;;;;;;6.38;4.10;;;;;;;9.56;56.17;101908.78;4967516;28;20093;-73
2024/01/26 03:57:20;;;;;;;5.13;3.90;;;;;;;9.56;56.75;101900.59;4970506;28;20049;-73
2024/01/26 03:59:48;;;;;;;4.95;3.67;;;;;;;9.57;56.34;101896.88;4967259;28;20046;-73
2024/01/26 04:02:17;;;;;;;6.00;3.90;;;;;;;9.56;56.50;101887.81;4968253;28;20426;-73
2024/01/26 04:04:45;;;;;;;5.30;3.75;;;;;;;9.56;56.72;101878.72;4968503;28;20529;-73
2024/01/26 04:07:15;;;;;;;5.03;3.58;;;;;;;9.57;56.50;101870.44;4968696;28;20051;-73
2024/01/26 04:09:43;;;;;;;5.45;3.85;;;;;;;9.55;56.40;101861.44;4969109;28;20049;-73
2024/01/26 04:12:11;;;;;;;6.80;3.72;;;;;;;9.54;56.24;101856.97;4966492;28;20101;-73
2024/01/26 04:14:38;;;;;;;5.07;3.35;;;;;;;9.55;56.39;101861.44;4967568;28;20125;-73
2024/01/26 04:17:06;;;;;;;5.10;3.47;;;;;;;9.56;56.68;101845.94;4967841;28;20045;-73
2024/01/26 04:19:34;;;;;;;4.78;3.53;;;;;;;9.55;56.18;101838.72;4973555;28;20050;-73
2024/01/26 04:22:02;;;;;;;5.28;3.42;;;;;;;9.54;56.14;101845.16;4968684;28;20043;-73
2024/01/26 04:24:32;;;;;;;5.28;3.50;;;;;;;9.56;56.19;101855.00;4967448;28;20130;-73
2024/01/26 04:27:00;;;;;;;4.85;3.42;;;;;;;9.53;56.55;101841.53;4970201;28;20137;-73
2024/01/26 04:29:28;;;;;;;4.57;3.10;;;;;;;9.53;56.42;101838.81;4964815;28;20051;-73
2024/01/26 04:31:56;;;;;;;4.82;3.35;;;;;;;9.54;56.55;101837.81;4967831;28;20133;-73
2024/01/26 04:34:24;;;;;;;4.40;3.20;;;;;;;9.54;56.31;101828.75;4967094;28;20051;-73
2024/01/26 04:36:52;;;;;;;4.65;2.90;;;;;;;9.55;56.61;101833.25;4966124;28;20528;-73
2024/01/26 04:39:20;;;;;;;4.13;2.80;;;;;;;9.55;56.14;101838.72;4966655;28;20075;-73
2024/01/26 04:41:49;;;;;;;4.38;3.03;;;;;;;9.56;56.52;101835.00;4969371;28;20502;-73
2024/01/26 04:44:17;;;;;;;4.90;2.88;;;;;;;9.55;56.61;101827.78;4967417;28;20039;-73
2024/01/26 04:46:45;;;;;;;4.63;2.70;;;;;;;9.56;56.59;101824.06;4968060;28;20059;-73
2024/01/26 04:49:13;;;;;;;3.75;2.50;;;;;;;9.55;56.40;101820.47;4968189;28;20067;-73
2024/01/26 04:51:42;;;;;;;4.07;2.45;;;;;;;9.56;56.24;101819.47;4966983;28;20046;-73
2024/01/26 04:54:10;;;;;;;3.33;2.22;;;;;;;9.56;56.09;101805.81;4968295;28;20050;-73
2024/01/26 04:56:37;;;;;;;3.28;2.33;;;;;;;9.56;56.32;101799.47;4969676;28;20383;-73
2024/01/26 04:59:07;;;;;;;3.85;2.20;;;;;;;9.58;56.51;101798.38;4969388;28;20042;-73
2024/01/26 05:01:35;;;;;;;3.80;2.05;;;;;;;9.57;56.51;101804.84;4966566;28;20086;-73
2024/01/26 05:04:03;;;;;;;3.65;2.20;;;;;;;9.58;55.96;101800.22;4964275;28;20531;-73
2024/01/26 05:06:31;;;;;;;3.88;1.90;;;;;;;9.58;56.31;101797.47;4968504;28;20054;-73
2024/01/26 05:09:00;;;;;;;5.03;2.20;;;;;;;9.58;56.24;101801.09;4969083;28;20046;-73
2024/01/26 05:11:28;;;;;;;5.18;2.53;;;;;;;9.60;55.99;101787.34;4966978;28;20117;-73
2024/01/26 05:13:56;;;;;;;4.63;2.05;;;;;;;9.59;56.09;101774.66;4968437;28;20045;-73
2024/01/26 05:16:25;;;;;;;5.03;2.60;;;;;;;9.61;56.28;101781.75;4961231;28;20077;-73
2024/01/26 05:18:53;;;;;;;5.88;2.53;;;;;;;9.60;55.95;101796.41;4967300;28;20054;-73
2024/01/26 05:21:21;;;;;;;5.13;2.10;;;;;;;9.60;56.31;101781.88;4968438;28;20082;-73
2024/01/26 05:23:52;;;;;;;3.65;2.00;;;;;;;9.61;55.85;101789.97;4966777;28;20071;-73
2024/01/26 05:26:20;;;;;;;4.13;2.15;;;;;;;9.61;55.78;101787.22;4968381;28;20089;-73
2024/01/26 05:28:48;;;;;;;3.42;1.80;;;;;;;9.63;55.80;101778.94;4971690;28;20058;-74
2024/01/26 05:31:16;;;;;;;3.38;1.75;;;;;;;9.63;55.94;101782.53;4970214;28;20133;-73
2024/01/26 05:33:46;;;;;;;3.55;2.15;;;;;;;9.66;55.74;101770.53;4970583;28;20040;-73
2024/01/26 05:36:14;;;;;;;2.97;1.63;;;;;;;9.64;56.07;101776.09;4970994;28;20503;-64
2024/01/26 05:38:42;;;;;;;2.65;1.60;;;;;;;9.64;56.14;101765.16;4970191;28;20058;-73
2024/01/26 05:41:11;;;;;;;4.25;1.77;;;;;;;9.64;56.27;101759.69;4969896;28;20501;-73
2024/01/26 05:43:39;;;;;;;3.60;1.60;;;;;;;9.67;56.17;101761.31;4975070;28;20141;-73
2024/01/26 05:46:07;;;;;;;5.43;1.70;;;;;;;9.68;56.03;101753.03;4966929;28;20047;-73
2024/01/26 05:48:35;;;;;;;4.60;1.60;;;;;;;9.68;55.59;101755.75;4968091;28;20129;-73
2024/01/26 05:51:05;;;;;;;3.47;1.55;;;;;;;9.71;55.78;101746.47;4966760;28;20038;-73
2024/01/26 05:53:33;;;;;;;3.85;1.70;;;;;;;9.70;55.99;101742.88;4966414;28;20519;-74
2024/01/26 05:56:01;;;;;;;3.17;1.60;;;;;;;9.71;55.97;101746.47;4971761;28;20047;-74
2024/01/26 05:58:29;;;;;;;2.67;1.50;;;;;;;9.71;55.56;101736.41;4971075;28;20130;-74
2024/01/26 06:00:57;;;;;;;2.95;1.73;;;;;;;9.71;55.93;101741.00;4966780;28;20081;-73
2024/01/26 06:03:25;;;;;;;2.55;1.55;;;;;;;9.71;55.44;101736.41;4971222;28;20159;-74
2024/01/26 06:05:53;;;;;;;2.30;1.30;;;;;;;9.71;55.28;101719.16;4970361;28;20487;-74
2024/01/26 06:08:23;;;;;;;2.70;1.63;;;;;;;9.72;55.86;101710.84;4971331;28;20124;-74
2024/01/26 06:10:51;;;;;;;2.05;1.20;;;;;;;9.71;55.49;101702.75;4970146;28;20057;-74
2024/01/26 06:13:20;;;;;;;2.13;1.20;;;;;;;9.72;55.80;101718.16;4969320;28;20046;-74
2024/01/26 06:15:48;;;;;;;2.33;1.30;;;;;;;9.71;55.71;101722.75;4970469;28;20455;-74
2024/01/26 06:18:16;;;;;;;2.85;1.40;;;;;;;9.70;55.71;101722.84;4972593;28;20130;-75
2024/01/26 06:20:44;;;;;;;2.80;1.55;;;;;;;9.71;55.66;101716.41;4974182;28;20062;-75
2024/01/26 06:23:12;;;;;;;3.33;1.60;;;;;;;9.71;55.27;101703.63;4969950;28;20038;-74
2024/01/26 06:25:41;;;;;;;3.42;1.67;;;;;;;9.72;55.19;101691.69;4969618;28;20070;-73
2024/01/26 06:28:09;;;;;;;3.42;2.00;;;;;;;9.71;55.45;101687.22;4967094;28;20411;-73
2024/01/26 06:30:37;;;;;;;3.85;1.95;;;;;;;9.71;55.51;101679.00;4962632;28;20050;-74
2024/01/26 06:33:06;;;;;;;3.70;2.15;;;;;;;9.72;55.33;101682.63;4968359;28;20066;-74
2024/01/26 06:35:34;;;;;;;3.05;2.03;;;;;;;9.71;55.33;101681.75;4967608;28;20047;-74
2024/01/26 06:38:02;;;;;;;3.70;2.20;;;;;;;9.72;55.73;101679.88;4966484;28;20042;-74
2024/01/26 06:40:30;;;;;;;3.75;2.25;;;;;;;9.71;55.41;101679.00;4970186;28;20039;-74
2024/01/26 06:43:02;;;;;;;3.67;2.03;;;;;;;9.73;55.49;101681.66;4970417;28;20129;-74
2024/01/26 06:45:30;;;;;;;4.35;2.20;;;;;;;9.70;55.89;101676.38;4985924;28;20580;-74
2024/01/26 06:47:58;;;;;;;2.97;1.88;;;;;;;9.72;55.76;101675.31;4970728;28;20590;-73
2024/01/26 06:50:26;;;;;;;3.35;1.92;;;;;;;9.73;55.35;101679.78;4967111;28;20455;-73
2024/01/26 06:52:54;;;;;;;3.13;2.10;;;;;;;9.73;55.22;101676.19;4964943;28;20159;-73
2024/01/26 06:55:22;;;;;;;4.00;2.00;;;;;;;9.72;55.52;101678.03;4984762;28;20223;-73
2024/01/26 06:57:50;;;;;;;3.10;1.85;;;;;;;9.73;55.44;101670.72;4968551;28;20093;-74
2024/01/26 07:00:21;;;;;;;3.65;2.05;;;;;;;9.74;55.13;101673.31;4965909;28;20047;-73
2024/01/26 07:02:49;;;;;;;3.40;1.92;;;;;;;9.73;55.68;101668.84;4965055;28;20054;-73
2024/01/26 07:05:17;;;;;;;2.88;1.80;;;;;;;9.74;55.41;101665.09;4969532;28;20046;-73
2024/01/26 07:07:45;;;;;;;3.00;1.88;;;;;;;9.74;55.14;101659.63;4961489;28;20042;-72
2024/01/26 07:10:13;;;;;;;3.05;1.90;;;;;;;9.75;55.63;101657.78;4969685;28;20565;-72
2024/01/26 07:12:41;;;;;;;4.00;1.85;;;;;;;9.75;55.40;101666.00;4967226;28;20053;-72
2024/01/26 07:15:10;;;;;;;2.80;1.55;;;;;;;9.74;54.98;101658.81;4968968;28;20074;-73
2024/01/26 07:17:39;;;;;;;2.80;1.67;;;;;;;9.74;55.22;101654.19;4967575;28;20510;-72
2024/01/26 07:20:08;;;;;;;2.72;1.70;;;;;;;9.72;54.96;101649.81;4970365;28;20143;-73
2024/01/26 07:22:37;;;;;;;3.97;2.05;;;;;;;9.71;55.50;101662.63;4968300;28;20046;-73
2024/01/26 07:25:09;;;;;;;3.15;1.60;;;;;;;9.71;55.37;101659.00;4969945;28;20034;-73
2024/01/26 07:27:38;;;;;;;3.83;1.88;;;;;;;9.69;55.27;101652.75;4969916;28;20078;-73
2024/01/26 07:30:08;;;;;;;3.42;1.65;;;;;;;9.68;55.40;101660.09;4969143;28;20047;-73
2024/01/26 07:32:36;;;;;;;3.15;1.60;;;;;;;9.67;55.39;101654.72;4963376;28;20062;-73
2024/01/26 07:35:07;;;;;;;3.25;1.70;;;;;;;9.66;55.50;101651.13;4971915;28;20605;-73
2024/01/26 07:37:36;;;;;;;3.67;1.88;;;;;;;9.64;55.55;101655.84;4969981;28;20043;-73
2024/01/26 07:40:08;;;;;;;2.95;1.80;;;;;;;9.64;55.33;101649.50;4969221;28;20051;-73
2024/01/26 07:42:36;;;;;;;3.47;1.90;;;;;;;9.61;55.20;101650.59;4968756;28;20141;-73
2024/01/26 07:45:05;;;;;;;4.03;1.88;;;;;;;9.63;55.59;101654.09;4971013;28;20584;-73
2024/01/26 07:47:34;;;;;;;3.33;1.90;;;;;;;9.62;55.43;101659.66;4969324;28;20515;-73
2024/01/26 07:50:03;;;;;;;3.85;1.90;;;;;;;9.62;55.88;101659.66;4961588;28;20511;-72
2024/01/26 07:52:32;;;;;;;4.95;2.00;;;;;;;9.62;55.96;101663.25;4967596;28;20054;-73
2024/01/26 07:55:00;;;;;;;3.58;2.10;;;;;;;9.60;55.75;101653.41;4964661;28;20051;-72
2024/01/26 07:57:28;;;;;;;4.32;2.60;;;;;;;9.60;55.68;101653.41;5028540;23;20061;-76
2024/01/26 07:59:56;;;;;;;3.70;2.13;;;;;;;9.59;56.01;101662.59;4970416;28;20070;-76
2024/01/26 08:02:24;;;;;;;4.35;2.53;;;;;;;9.58;55.79;101658.09;4969105;28;20576;-79
2024/01/26 08:04:53;;;;;;;4.10;2.30;;;;;;;9.57;56.06;101659.13;4972732;28;20102;-78
2024/01/26 08:07:23;;;;;;;3.67;2.00;;;;;;;9.56;55.77;101655.50;4965454;28;20043;-78
2024/01/26 08:09:52;;;;;;;3.95;2.45;;;;;;;9.57;55.95;101653.66;4975316;28;20126;-78
2024/01/26 08:12:21;;;;;;;3.80;2.25;;;;;;;9.54;56.31;101645.66;4974206;28;20043;-78
2024/01/26 08:15:09;;;;;;;5.32;2.00;;;;;;;9.51;56.17;101641.28;4972225;28;20034;-79
2024/01/26 08:17:38;;;;;;;3.42;1.90;;;;;;;9.52;56.16;101634.84;4973050;28;20110;-78
2024/01/26 08:20:08;;;;;;;4.80;2.00;;;;;;;9.52;56.40;101620.28;4972349;28;20043;-79
2024/01/26 08:22:39;;;;;;;3.67;1.90;;;;;;;9.49;56.17;101617.81;4973348;28;20060;-78
2024/01/26 08:25:09;;;;;;;3.65;1.90;;;;;;;9.51;56.73;101627.63;4968629;28;20050;-79
2024/01/26 08:27:38;;;;;;;3.60;2.20;;;;;;;9.50;56.20;101635.91;4974295;28;20139;-78
2024/01/26 08:30:07;;;;;;;3.80;2.15;;;;;;;9.48;56.73;101625.13;4984168;23;20125;-76
2024/01/26 08:32:35;;;;;;;4.60;1.88;;;;;;;9.48;56.40;101625.13;4983375;28;20065;-75
2024/01/26 08:35:09;;;;;;;4.03;2.05;;;;;;;9.47;56.71;101631.56;4986009;28;20063;-76
2024/01/26 08:37:39;;;;;;;2.95;1.73;;;;;;;9.48;56.57;101633.31;4969248;28;20046;-75
2024/01/26 08:40:10;;;;;;;3.50;2.00;;;;;;;9.50;56.84;101639.53;4968268;28;20074;-74
2024/01/26 08:42:38;;;;;;;4.30;2.00;;;;;;;9.49;56.82;101640.53;4964641;28;20055;-75
2024/01/26 08:45:08;;;;;;;3.40;1.80;;;;;;;9.51;56.76;101643.13;4970707;28;20162;-75
2024/01/26 08:47:36;;;;;;;3.17;1.73;;;;;;;9.51;57.10;101649.47;4968516;28;20518;-75
2024/01/26 08:50:05;;;;;;;4.40;1.67;;;;;;;9.52;57.12;101659.44;4960835;28;20050;-75
2024/01/26 08:52:33;;;;;;;3.35;1.70;;;;;;;9.54;57.15;101659.31;4964995;28;20106;-76
2024/01/26 08:55:01;;;;;;;4.20;1.70;;;;;;;9.56;57.52;101654.63;4961482;28;20130;-76
2024/01/26 08:57:30;;;;;;;3.47;1.50;;;;;;;9.58;57.65;101656.25;4966195;28;21510;-75
2024/01/26 08:59:58;;;;;;;2.47;1.30;;;;;;;9.59;57.32;101665.31;4968406;28;20057;-75
2024/01/26 09:02:26;;;;;;;2.67;1.33;;;;;;;9.62;57.55;101667.84;4964389;28;20093;-76
2024/01/26 09:04:55;;;;;;;3.90;1.40;;;;;;;9.65;57.64;101664.91;4973370;28;20608;-76
2024/01/26 09:07:23;;;;;;;2.83;1.30;;;;;;;9.66;57.77;101667.50;4968592;28;20046;-76
2024/01/26 09:09:51;;;;;;;3.50;1.30;;;;;;;9.69;57.49;101661.84;4964598;28;20576;-76
2024/01/26 09:12:19;;;;;;;2.15;1.17;;;;;;;9.72;58.11;101666.22;4964398;28;20093;-76
2024/01/26 09:14:49;;;;;;;1.95;1.15;;;;;;;9.76;57.64;101673.22;4967298;28;20133;-75
2024/01/26 09:17:17;;;;;;;2.42;1.13;;;;;;;9.77;57.69;101672.22;4973421;28;20450;-76
2024/01/26 09:19:45;;;;;;;1.65;1.05;;;;;;;9.81;57.70;101668.31;4967750;28;20050;-76
2024/01/26 09:22:13;;;;;;;2.60;1.58;;;;;;;9.83;58.16;101669.03;4990027;28;20050;-75
2024/01/26 09:24:41;;;;;;;2.28;1.30;;;;;;;9.87;57.68;101675.19;4968296;28;20117;-76
2024/01/26 09:27:12;;;;;;;1.98;1.17;;;;;;;9.89;58.15;101676.84;4970044;28;20073;-75
2024/01/26 09:29:40;;;;;;;1.40;1.10;;;;;;;9.91;58.06;101671.22;4970999;28;20405;-76
2024/01/26 09:32:09;;;;;;;2.28;1.25;;;;;;;9.95;58.08;101651.78;4968068;28;20102;-76
2024/01/26 09:34:37;;;;;;;3.13;1.40;;;;;;;9.97;57.90;101671.69;4969120;28;20447;-72
2024/01/26 09:37:06;;;;;;;2.03;1.23;;;;;;;9.98;58.21;101654.28;4965743;28;20042;-71
2024/01/26 09:39:33;;;;;;;2.60;1.45;;;;;;;10.01;58.07;101665.00;4970290;28;20467;-72
2024/01/26 09:42:02;;;;;;;2.17;1.23;;;;;;;10.03;58.30;101651.22;4960504;28;20209;-72
2024/01/26 09:44:30;;;;;;;2.85;1.20;;;;;;;10.04;57.99;101661.16;4966050;28;20511;-72
2024/01/26 09:46:58;;;;;;;2.17;1.20;;;;;;;10.07;57.94;101655.50;4966169;28;20053;-72
2024/01/26 09:49:29;;;;;;;2.28;1.20;;;;;;;10.10;58.34;101647.03;4963673;28;20039;-72
2024/01/26 09:51:58;;;;;;;3.90;1.45;;;;;;;10.10;58.35;101647.03;4964902;28;20157;-71
2024/01/26 09:54:28;;;;;;;2.45;1.40;;;;;;;10.12;58.33;101653.28;4962687;28;20035;-72
2024/01/26 09:56:58;;;;;;;3.28;1.50;;;;;;;10.14;58.18;101649.44;4971301;28;20533;-72
2024/01/26 09:59:26;;;;;;;2.63;1.35;;;;;;;10.15;58.45;101648.44;4963782;28;20387;-71
2024/01/26 10:01:54;;;;;;;2.42;1.45;;;;;;;10.17;58.07;101651.94;4965602;28;20050;-71
2024/01/26 10:04:23;;;;;;;2.13;1.35;;;;;;;10.19;58.13;101657.31;4964811;28;20048;-71
2024/01/26 10:06:52;;;;;;;2.63;1.50;;;;;;;10.22;58.13;101663.44;4967321;28;20093;-72
2024/01/26 10:09:20;;;;;;;2.95;1.58;;;;;;;10.23;58.01;101653.38;4967803;28;20102;-72
2024/01/26 10:11:48;;;;;;;3.22;1.40;;;;;;;10.26;58.52;101665.94;4968518;28;20128;-72
2024/01/26 10:14:23;;;;;;;2.28;1.30;;;;;;;10.32;58.38;101666.34;4965824;28;20167;-71
2024/01/26 10:16:55;;;;;;;2.80;1.23;;;;;;;10.32;58.75;101658.13;4968878;28;20047;-71
2024/01/26 10:19:25;;;;;;;2.75;1.40;;;;;;;10.30;58.31;101662.88;4967280;28;20042;-71
2024/01/26 10:22:21;;;;;;;2.88;1.40;;;;;;;10.38;59.00;101667.78;4990012;23;20038;-76
2024/01/26 10:24:52;;;;;;;2.38;1.33;;;;;;;10.37;58.30;101663.28;4924507;29;20290;-76
2024/01/26 10:27:21;;;;;;;1.80;1.20;;;;;;;10.37;58.07;101661.44;4913429;29;20048;-76
2024/01/26 10:29:49;;;;;;;2.95;1.33;;;;;;;10.40;58.57;101655.72;4915617;29;20566;-75
2024/01/26 10:32:17;;;;;;;2.63;1.58;;;;;;;10.42;58.04;101658.34;4911282;29;20084;-75
2024/01/26 10:34:48;;;;;;;2.58;1.52;;;;;;;10.44;58.09;101653.63;4929438;29;20169;-76
2024/01/26 10:37:20;;;;;;;2.42;1.40;;;;;;;10.45;58.20;101661.72;4895696;29;20075;-75
2024/01/26 10:39:50;;;;;;;1.48;1.17;;;;;;;10.45;58.46;101647.19;4897814;29;20598;-76
2024/01/26 10:42:21;;;;;;;2.42;1.13;;;;;;;10.50;58.12;101666.84;4896498;29;20044;-76
2024/01/26 10:44:49;;;;;;;2.22;1.33;;;;;;;10.49;58.08;101654.16;4912163;29;20504;-76
2024/01/26 10:47:18;;;;;;;2.92;1.42;;;;;;;10.50;57.93;101659.50;4914795;29;20075;-75
2024/01/26 10:49:48;;;;;;;2.60;1.40;;;;;;;10.50;58.17;101672.31;4914325;29;20044;-76
2024/01/26 10:52:18;;;;;;;2.25;1.23;;;;;;;10.49;58.30;101674.19;4911386;29;20044;-76
2024/01/26 10:54:48;;;;;;;2.25;1.10;;;;;;;10.50;58.35;101707.91;4930589;23;20058;-73
2024/01/26 10:57:19;;;;;;;2.85;1.27;;;;;;;10.52;57.87;101730.56;4932143;29;20043;-73
2024/01/26 10:59:49;;;;;;;3.35;1.65;;;;;;;10.50;58.18;101724.31;4933066;29;20487;-73
2024/01/26 11:02:24;;;;;;;3.53;1.30;;;;;;;10.52;57.76;101720.50;4945922;28;20052;-73
2024/01/26 11:04:52;;;;;;;3.20;1.55;;;;;;;10.49;57.48;101734.41;4916261;29;20092;-73
2024/01/26 11:07:21;;;;;;;2.72;1.40;;;;;;;10.49;57.55;101736.25;4914238;29;20087;-72
2024/01/26 11:09:51;;;;;;;2.45;1.20;;;;;;;10.50;57.47;101754.44;4913411;29;20052;-73
2024/01/26 11:12:21;;;;;;;4.75;1.50;;;;;;;10.48;57.12;101767.38;4910465;29;20496;-73
2024/01/26 11:15:04;;;;;;;3.65;1.17;;;;;;;10.48;57.04;101779.16;4909128;29;20060;-73
2024/01/26 11:17:43;;;;;;;3.55;1.10;;;;;;;10.48;56.77;101792.84;4937074;29;20068;-73
2024/01/26 11:20:18;;;;;;;2.88;1.00;;;;;;;10.46;55.63;101789.38;4913125;29;20036;-73
2024/01/26 11:22:59;;;;;;;3.20;1.00;;;;;;;10.44;55.05;101807.75;4923638;29;20048;-72
2024/01/26 11:25:27;;;;;;;1.48;0.85;;;;;;;10.41;55.51;101820.78;4911759;29;20107;-72
2024/01/26 11:27:59;;;;;;;3.08;1.10;;;;;;;10.39;55.23;101811.81;4913321;29;20048;-72
2024/01/26 11:30:29;;;;;;;2.90;0.93;;;;;;;10.36;55.26;101809.31;4914989;29;20044;-72
2024/01/26 11:32:58;;;;;;;2.97;1.05;;;;;;;10.36;54.80;101828.44;4911835;29;20391;-72
2024/01/26 11:35:26;;;;;;;1.48;0.80;;;;;;;10.33;55.01;101831.41;4910803;29;20040;-72
2024/01/26 11:37:56;;;;;;;3.58;1.20;;;;;;;10.31;54.58;101833.38;4909493;29;20569;-72
2024/01/26 11:40:24;;;;;;;2.08;0.70;;;;;;;10.29;54.91;101852.66;4912827;29;20138;-72